• Join FlightAware (Why Join?)
  • Login
  • US Flag 
08:36PM EDT


 

Airport Tracker/Info


-or-


 

Live Flight TrackerFlight Track Log ✈ CCA4324 ✈ 13-Jun-2013 ✈ ZGKL / KWL - ZUUU / CTU

Flight Track Log - Related Links

Times and Time Zones

All times are in EDT time to prevent confusion due to time zone crossing. See the CCA4324 flight status page for this flight to view local times or setup timezone preferences in your user account.

Time Position Orientation Groundspeed Altitude Reporting Facility
EDT Latitude Longitude Course Direction KTS MPH feet Rate Location/Type
11:31AM 25.4186 109.8266 316° Northwest  Level Estimated
11:32AM 25.4854 109.7556 316° Northwest  Level Estimated
11:33AM 25.5521 109.6845 316° Northwest  Level Estimated
11:34AM 25.6188 109.6134 316° Northwest  Level Estimated
11:35AM 25.6854 109.5421 316° Northwest  Level Estimated
11:36AM 25.7521 109.4708 316° Northwest  Level Estimated
11:37AM 25.8186 109.3994 316° Northwest  Level Estimated
11:38AM 25.8852 109.3279 316° Northwest  Level Estimated
11:39AM 25.9517 109.2563 316° Northwest  Level Estimated
11:40AM 26.0182 109.1847 316° Northwest  Level Estimated
11:41AM 26.0847 109.1129 316° Northwest  Level Estimated
11:42AM 26.1511 109.0411 316° Northwest  Level Estimated
11:43AM 26.2174 108.9692 316° Northwest  Level Estimated
11:44AM 26.2838 108.8973 316° Northwest  Level Estimated
11:45AM 26.3501 108.8252 316° Northwest  Level Estimated
11:46AM 26.4164 108.7531 316° Northwest  Level Estimated
11:47AM 26.4826 108.6808 316° Northwest  Level Estimated
11:48AM 26.5488 108.6086 316° Northwest  Level Estimated
11:49AM 26.6150 108.5362 316° Northwest  Level Estimated
11:50AM 26.6811 108.4637 316° Northwest  Level Estimated
11:51AM 26.7472 108.3911 316° Northwest  Level Estimated
11:52AM 26.8132 108.3185 316° Northwest  Level Estimated
11:53AM 26.8792 108.2458 316° Northwest  Level Estimated
11:54AM 26.9452 108.1730 315° West  Level Estimated
11:55AM 27.0112 108.1001 315° West  Level Estimated
11:56AM 27.0770 108.0271 315° West  Level Estimated
11:57AM 27.1429 107.9540 315° West  Level Estimated
11:58AM 27.2087 107.8809 315° West  Level Estimated
11:59AM 27.2745 107.8076 315° West  Level Estimated
12:00PM 27.3403 107.7343 315° West  Level Estimated
12:01PM 27.4060 107.6609 315° West  Level Estimated
12:02PM 27.4717 107.5874 315° West  Level Estimated
12:03PM 27.5373 107.5138 315° West  Level Estimated
12:04PM 27.6029 107.4401 315° West  Level Estimated
12:05PM 27.6684 107.3663 315° West  Level Estimated
12:06PM 27.7340 107.2925 315° West  Level Estimated
12:07PM 27.7994 107.2186 315° West  Level Estimated
12:08PM 27.8649 107.1445 315° West  Level Estimated
12:09PM 27.9303 107.0704 315° West  Level Estimated
12:10PM 27.9956 106.9962 315° West  Level Estimated
12:11PM 28.0610 106.9219 315° West  Level Estimated
12:12PM 28.1262 106.8475 315° West  Level Estimated
12:13PM 28.1915 106.7730 315° West  Level Estimated
12:14PM 28.2567 106.6984 315° West  Level Estimated
12:15PM 28.3218 106.6238 315° West  Level Estimated
12:16PM 28.3870 106.5490 315° West  Level Estimated
12:17PM 28.4520 106.4742 315° West  Level Estimated
12:18PM 28.5171 106.3992 315° West  Level Estimated
12:19PM 28.5821 106.3242 315° West  Level Estimated
12:20PM 28.6470 106.2491 315° West  Level Estimated
12:21PM 28.7119 106.1739 315° West  Level Estimated
12:22PM 28.7768 106.0986 315° West  Level Estimated
12:23PM 28.8416 106.0232 314° West  Level Estimated
12:24PM 28.9064 105.9477 314° West  Level Estimated
12:25PM 28.9712 105.8721 314° West  Level Estimated
12:26PM 29.0359 105.7964 314° West  Level Estimated
12:27PM 29.1005 105.7206 314° West  Level Estimated
12:28PM 29.1651 105.6447 314° West  Level Estimated
12:29PM 29.2297 105.5688 314° West  Level Estimated
12:30PM 29.2943 105.4927 314° West  Level Estimated
12:31PM 29.3587 105.4165 314° West  Level Estimated
12:32PM 29.4232 105.3403 314° West  Level Estimated
12:33PM 29.4876 105.2639 314° West  Level Estimated
12:34PM 29.5519 105.1874 314° West  Level Estimated
12:35PM 29.6162 105.1109 314° West  Level Estimated
12:36PM 29.6805 105.0342 314° West  Level Estimated
12:37PM 29.7447 104.9575 314° West  Level Estimated
12:38PM 29.8089 104.8807 314° West  Level Estimated
12:39PM 29.8731 104.8037 314° West  Level Estimated
12:40PM 29.9372 104.7267 314° West  Level Estimated
12:41PM 30.0012 104.6495 314° West  Level Estimated
12:42PM 30.0652 104.5723 314° West  Level Estimated
12:43PM 30.1292 104.4949 314° West  Level Estimated
12:44PM 30.1931 104.4175 314° West  Level Estimated
12:45PM 30.2569 104.3400 314° West  Level Estimated
12:46PM 30.3208 104.2623 314° West  Level Estimated
12:47PM 30.3845 104.1845 314° West  Level Estimated
12:48PM 30.4483 104.1067 314° West  Level Estimated
12:49PM 30.5119 104.0287 313° West  Level Estimated
12:50PM 30.5756 103.9507 313° West  Level Estimated
12:51PM 30.5785 103.9471 313° West  Level Estimated
12:52PM 30.5785 103.9471 240° Southwest  Level Estimated
12:53PM 30.5785 103.9471 240° Southwest  Level Estimated
12:54PM 30.5785 103.9471 240° Southwest  Level Estimated
12:55PM 30.5785 103.9471 240° Southwest  Level Estimated
12:56PM 30.5785 103.9471 240° Southwest  Level Estimated